sensor_id;sensor_type;location;lat;lon;timestamp;P1;durP1;ratioP1;P2;durP2;ratioP2
37407;SDS011;24866;50.248;8.252;2022-08-19T00:00:30;25.50;;;22.80;;
37407;SDS011;24866;50.248;8.252;2022-08-19T00:03:02;26.30;;;22.38;;
37407;SDS011;24866;50.248;8.252;2022-08-19T00:05:32;26.50;;;23.65;;
37407;SDS011;24866;50.248;8.252;2022-08-19T00:08:03;27.58;;;24.50;;
37407;SDS011;24866;50.248;8.252;2022-08-19T00:10:33;26.70;;;22.95;;
37407;SDS011;24866;50.248;8.252;2022-08-19T00:13:03;31.48;;;28.05;;
37407;SDS011;24866;50.248;8.252;2022-08-19T00:15:33;29.70;;;26.45;;
37407;SDS011;24866;50.248;8.252;2022-08-19T00:18:03;33.25;;;27.10;;
37407;SDS011;24866;50.248;8.252;2022-08-19T00:20:33;25.48;;;21.80;;
37407;SDS011;24866;50.248;8.252;2022-08-19T00:23:04;30.58;;;27.33;;
37407;SDS011;24866;50.248;8.252;2022-08-19T00:25:34;31.38;;;27.38;;
37407;SDS011;24866;50.248;8.252;2022-08-19T00:28:04;35.03;;;30.05;;
37407;SDS011;24866;50.248;8.252;2022-08-19T00:30:34;31.67;;;25.75;;
37407;SDS011;24866;50.248;8.252;2022-08-19T00:33:04;35.45;;;28.80;;
37407;SDS011;24866;50.248;8.252;2022-08-19T00:35:36;33.78;;;29.77;;
37407;SDS011;24866;50.248;8.252;2022-08-19T00:38:07;35.33;;;31.65;;
37407;SDS011;24866;50.248;8.252;2022-08-19T00:40:37;33.42;;;29.92;;
37407;SDS011;24866;50.248;8.252;2022-08-19T00:43:08;33.40;;;26.35;;
37407;SDS011;24866;50.248;8.252;2022-08-19T00:45:41;32.88;;;29.35;;
37407;SDS011;24866;50.248;8.252;2022-08-19T00:48:11;31.40;;;27.80;;
37407;SDS011;24866;50.248;8.252;2022-08-19T00:50:41;33.22;;;27.27;;
37407;SDS011;24866;50.248;8.252;2022-08-19T00:53:16;33.17;;;27.50;;
37407;SDS011;24866;50.248;8.252;2022-08-19T00:55:48;31.83;;;28.52;;
37407;SDS011;24866;50.248;8.252;2022-08-19T00:58:22;28.40;;;24.25;;
37407;SDS011;24866;50.248;8.252;2022-08-19T01:00:56;34.58;;;29.00;;
37407;SDS011;24866;50.248;8.252;2022-08-19T01:03:26;32.08;;;28.48;;
37407;SDS011;24866;50.248;8.252;2022-08-19T01:05:57;33.10;;;28.27;;
37407;SDS011;24866;50.248;8.252;2022-08-19T01:08:29;30.35;;;27.08;;
37407;SDS011;24866;50.248;8.252;2022-08-19T01:10:59;32.03;;;28.63;;
37407;SDS011;24866;50.248;8.252;2022-08-19T01:13:30;31.60;;;28.15;;
37407;SDS011;24866;50.248;8.252;2022-08-19T01:16:03;28.92;;;25.85;;
37407;SDS011;24866;50.248;8.252;2022-08-19T01:18:36;31.17;;;27.77;;
37407;SDS011;24866;50.248;8.252;2022-08-19T01:21:10;31.30;;;27.67;;
37407;SDS011;24866;50.248;8.252;2022-08-19T01:23:46;30.88;;;27.60;;
37407;SDS011;24866;50.248;8.252;2022-08-19T01:26:17;33.88;;;30.10;;
37407;SDS011;24866;50.248;8.252;2022-08-19T01:28:49;34.63;;;30.60;;
37407;SDS011;24866;50.248;8.252;2022-08-19T01:31:23;33.80;;;30.25;;
37407;SDS011;24866;50.248;8.252;2022-08-19T01:33:57;31.83;;;28.38;;
37407;SDS011;24866;50.248;8.252;2022-08-19T01:36:28;34.63;;;31.00;;
37407;SDS011;24866;50.248;8.252;2022-08-19T01:41:33;34.13;;;28.60;;
37407;SDS011;24866;50.248;8.252;2022-08-19T01:44:03;30.63;;;27.33;;
37407;SDS011;24866;50.248;8.252;2022-08-19T01:46:33;35.60;;;30.38;;
37407;SDS011;24866;50.248;8.252;2022-08-19T01:49:04;34.83;;;30.35;;
37407;SDS011;24866;50.248;8.252;2022-08-19T01:51:35;29.67;;;25.27;;
37407;SDS011;24866;50.248;8.252;2022-08-19T01:54:07;29.63;;;26.42;;
37407;SDS011;24866;50.248;8.252;2022-08-19T01:56:38;27.88;;;24.88;;
37407;SDS011;24866;50.248;8.252;2022-08-19T01:59:08;30.25;;;27.00;;
37407;SDS011;24866;50.248;8.252;2022-08-19T02:01:42;30.23;;;27.08;;
37407;SDS011;24866;50.248;8.252;2022-08-19T02:04:12;33.58;;;26.65;;
37407;SDS011;24866;50.248;8.252;2022-08-19T02:06:42;29.13;;;25.95;;
37407;SDS011;24866;50.248;8.252;2022-08-19T02:09:13;29.92;;;26.88;;
37407;SDS011;24866;50.248;8.252;2022-08-19T02:11:44;30.17;;;26.17;;
37407;SDS011;24866;50.248;8.252;2022-08-19T02:14:14;36.50;;;32.72;;
37407;SDS011;24866;50.248;8.252;2022-08-19T02:16:44;28.50;;;25.58;;
37407;SDS011;24866;50.248;8.252;2022-08-19T02:19:14;34.25;;;30.65;;
37407;SDS011;24866;50.248;8.252;2022-08-19T02:21:43;31.48;;;28.08;;
37407;SDS011;24866;50.248;8.252;2022-08-19T02:24:15;29.33;;;26.15;;
37407;SDS011;24866;50.248;8.252;2022-08-19T02:26:45;32.03;;;23.05;;
37407;SDS011;24866;50.248;8.252;2022-08-19T02:29:15;29.08;;;25.77;;
37407;SDS011;24866;50.248;8.252;2022-08-19T02:31:44;30.67;;;23.67;;
37407;SDS011;24866;50.248;8.252;2022-08-19T02:34:14;32.67;;;27.42;;
37407;SDS011;24866;50.248;8.252;2022-08-19T02:36:45;27.05;;;24.02;;
37407;SDS011;24866;50.248;8.252;2022-08-19T02:39:16;30.50;;;27.42;;
37407;SDS011;24866;50.248;8.252;2022-08-19T02:41:45;33.38;;;29.92;;
37407;SDS011;24866;50.248;8.252;2022-08-19T02:44:17;32.10;;;28.75;;
37407;SDS011;24866;50.248;8.252;2022-08-19T02:46:47;31.02;;;25.10;;
37407;SDS011;24866;50.248;8.252;2022-08-19T02:49:18;26.85;;;23.63;;
37407;SDS011;24866;50.248;8.252;2022-08-19T02:51:48;29.42;;;25.90;;
37407;SDS011;24866;50.248;8.252;2022-08-19T02:54:19;30.05;;;26.08;;
37407;SDS011;24866;50.248;8.252;2022-08-19T02:56:49;30.02;;;24.38;;
37407;SDS011;24866;50.248;8.252;2022-08-19T02:59:19;31.95;;;28.65;;
37407;SDS011;24866;50.248;8.252;2022-08-19T03:01:49;34.50;;;28.33;;
37407;SDS011;24866;50.248;8.252;2022-08-19T03:04:19;35.92;;;31.20;;
37407;SDS011;24866;50.248;8.252;2022-08-19T03:06:49;28.65;;;25.60;;
37407;SDS011;24866;50.248;8.252;2022-08-19T03:09:20;25.08;;;22.42;;
37407;SDS011;24866;50.248;8.252;2022-08-19T03:11:50;25.58;;;22.58;;
37407;SDS011;24866;50.248;8.252;2022-08-19T03:14:20;25.63;;;22.92;;
37407;SDS011;24866;50.248;8.252;2022-08-19T03:16:51;24.13;;;21.63;;
37407;SDS011;24866;50.248;8.252;2022-08-19T03:19:21;25.90;;;23.15;;
37407;SDS011;24866;50.248;8.252;2022-08-19T03:21:51;27.20;;;22.48;;
37407;SDS011;24866;50.248;8.252;2022-08-19T03:24:22;25.65;;;22.90;;
37407;SDS011;24866;50.248;8.252;2022-08-19T03:26:54;23.88;;;21.38;;
37407;SDS011;24866;50.248;8.252;2022-08-19T03:29:25;25.30;;;22.42;;
37407;SDS011;24866;50.248;8.252;2022-08-19T03:31:56;26.42;;;23.17;;
37407;SDS011;24866;50.248;8.252;2022-08-19T03:34:29;24.88;;;22.27;;
37407;SDS011;24866;50.248;8.252;2022-08-19T03:37:02;25.60;;;22.80;;
37407;SDS011;24866;50.248;8.252;2022-08-19T03:39:35;25.13;;;22.42;;
37407;SDS011;24866;50.248;8.252;2022-08-19T03:42:06;24.40;;;21.80;;
37407;SDS011;24866;50.248;8.252;2022-08-19T03:44:37;28.20;;;25.23;;
37407;SDS011;24866;50.248;8.252;2022-08-19T03:47:07;25.80;;;21.80;;
37407;SDS011;24866;50.248;8.252;2022-08-19T03:49:36;24.58;;;22.02;;
37407;SDS011;24866;50.248;8.252;2022-08-19T03:52:06;29.75;;;22.08;;
37407;SDS011;24866;50.248;8.252;2022-08-19T03:54:38;25.85;;;22.60;;
37407;SDS011;24866;50.248;8.252;2022-08-19T03:57:07;25.83;;;22.35;;
37407;SDS011;24866;50.248;8.252;2022-08-19T03:59:39;25.45;;;21.88;;
37407;SDS011;24866;50.248;8.252;2022-08-19T04:02:10;25.80;;;22.13;;
37407;SDS011;24866;50.248;8.252;2022-08-19T04:04:42;26.35;;;21.80;;
37407;SDS011;24866;50.248;8.252;2022-08-19T04:07:13;24.88;;;22.27;;
37407;SDS011;24866;50.248;8.252;2022-08-19T04:09:45;24.80;;;21.70;;
37407;SDS011;24866;50.248;8.252;2022-08-19T04:12:15;23.27;;;20.75;;
37407;SDS011;24866;50.248;8.252;2022-08-19T04:14:45;24.05;;;20.70;;
37407;SDS011;24866;50.248;8.252;2022-08-19T04:17:15;22.95;;;20.38;;
37407;SDS011;24866;50.248;8.252;2022-08-19T04:19:45;24.13;;;21.17;;
37407;SDS011;24866;50.248;8.252;2022-08-19T04:22:15;23.90;;;21.40;;
37407;SDS011;24866;50.248;8.252;2022-08-19T04:24:46;22.75;;;19.75;;
37407;SDS011;24866;50.248;8.252;2022-08-19T04:27:16;22.90;;;20.50;;
37407;SDS011;24866;50.248;8.252;2022-08-19T04:29:46;25.25;;;21.52;;
37407;SDS011;24866;50.248;8.252;2022-08-19T04:32:15;25.92;;;22.83;;
37407;SDS011;24866;50.248;8.252;2022-08-19T04:34:45;25.67;;;22.88;;
37407;SDS011;24866;50.248;8.252;2022-08-19T04:37:15;26.05;;;22.60;;
37407;SDS011;24866;50.248;8.252;2022-08-19T04:39:46;23.80;;;21.35;;
37407;SDS011;24866;50.248;8.252;2022-08-19T04:42:34;24.90;;;22.25;;
37407;SDS011;24866;50.248;8.252;2022-08-19T04:45:10;23.20;;;20.33;;
37407;SDS011;24866;50.248;8.252;2022-08-19T04:47:42;22.87;;;20.13;;
37407;SDS011;24866;50.248;8.252;2022-08-19T04:50:13;24.17;;;21.60;;
37407;SDS011;24866;50.248;8.252;2022-08-19T04:52:44;29.85;;;22.25;;
37407;SDS011;24866;50.248;8.252;2022-08-19T04:55:15;24.70;;;20.70;;
37407;SDS011;24866;50.248;8.252;2022-08-19T04:57:46;22.83;;;20.43;;
37407;SDS011;24866;50.248;8.252;2022-08-19T05:00:16;27.40;;;24.58;;
37407;SDS011;24866;50.248;8.252;2022-08-19T05:02:45;25.42;;;22.27;;
37407;SDS011;24866;50.248;8.252;2022-08-19T05:05:17;23.23;;;20.83;;
37407;SDS011;24866;50.248;8.252;2022-08-19T05:07:47;25.20;;;21.10;;
37407;SDS011;24866;50.248;8.252;2022-08-19T05:10:19;24.92;;;22.17;;
37407;SDS011;24866;50.248;8.252;2022-08-19T05:12:49;24.27;;;21.30;;
37407;SDS011;24866;50.248;8.252;2022-08-19T05:15:19;23.45;;;20.83;;
37407;SDS011;24866;50.248;8.252;2022-08-19T05:17:49;24.42;;;21.60;;
37407;SDS011;24866;50.248;8.252;2022-08-19T05:20:37;26.25;;;21.83;;
37407;SDS011;24866;50.248;8.252;2022-08-19T05:23:24;25.20;;;22.50;;
37407;SDS011;24866;50.248;8.252;2022-08-19T05:25:56;23.60;;;20.17;;
37407;SDS011;24866;50.248;8.252;2022-08-19T05:28:26;25.17;;;22.42;;
37407;SDS011;24866;50.248;8.252;2022-08-19T05:30:55;30.77;;;23.88;;
37407;SDS011;24866;50.248;8.252;2022-08-19T05:33:25;25.88;;;23.08;;
37407;SDS011;24866;50.248;8.252;2022-08-19T05:35:55;25.65;;;22.10;;
37407;SDS011;24866;50.248;8.252;2022-08-19T05:38:25;23.75;;;21.15;;
37407;SDS011;24866;50.248;8.252;2022-08-19T05:40:59;27.15;;;23.17;;
37407;SDS011;24866;50.248;8.252;2022-08-19T05:43:29;25.48;;;22.73;;
37407;SDS011;24866;50.248;8.252;2022-08-19T05:45:59;25.75;;;22.35;;
37407;SDS011;24866;50.248;8.252;2022-08-19T05:48:29;26.58;;;22.60;;
37407;SDS011;24866;50.248;8.252;2022-08-19T05:51:02;26.50;;;22.63;;
37407;SDS011;24866;50.248;8.252;2022-08-19T05:53:34;25.60;;;22.90;;
37407;SDS011;24866;50.248;8.252;2022-08-19T05:56:06;27.85;;;24.27;;
37407;SDS011;24866;50.248;8.252;2022-08-19T05:58:37;27.00;;;22.88;;
37407;SDS011;24866;50.248;8.252;2022-08-19T06:01:09;29.38;;;24.00;;
37407;SDS011;24866;50.248;8.252;2022-08-19T06:03:41;20.73;;;17.70;;
37407;SDS011;24866;50.248;8.252;2022-08-19T06:06:12;22.40;;;18.23;;
37407;SDS011;24866;50.248;8.252;2022-08-19T06:08:43;27.33;;;18.95;;
37407;SDS011;24866;50.248;8.252;2022-08-19T06:11:21;23.00;;;20.17;;
37407;SDS011;24866;50.248;8.252;2022-08-19T06:13:53;19.67;;;17.58;;
37407;SDS011;24866;50.248;8.252;2022-08-19T06:16:24;20.88;;;18.58;;
37407;SDS011;24866;50.248;8.252;2022-08-19T06:18:55;22.40;;;18.23;;
37407;SDS011;24866;50.248;8.252;2022-08-19T06:21:26;19.98;;;17.85;;
37407;SDS011;24866;50.248;8.252;2022-08-19T06:23:57;22.57;;;18.23;;
37407;SDS011;24866;50.248;8.252;2022-08-19T06:26:29;21.33;;;19.13;;
37407;SDS011;24866;50.248;8.252;2022-08-19T06:28:59;19.40;;;16.70;;
37407;SDS011;24866;50.248;8.252;2022-08-19T06:31:30;24.70;;;21.17;;
37407;SDS011;24866;50.248;8.252;2022-08-19T06:34:01;20.00;;;17.88;;
37407;SDS011;24866;50.248;8.252;2022-08-19T06:36:33;21.85;;;17.42;;
37407;SDS011;24866;50.248;8.252;2022-08-19T06:39:06;18.60;;;16.65;;
37407;SDS011;24866;50.248;8.252;2022-08-19T06:41:41;23.75;;;16.23;;
37407;SDS011;24866;50.248;8.252;2022-08-19T06:44:12;17.13;;;15.27;;
37407;SDS011;24866;50.248;8.252;2022-08-19T06:46:43;18.08;;;16.10;;
37407;SDS011;24866;50.248;8.252;2022-08-19T06:49:13;16.33;;;14.63;;
37407;SDS011;24866;50.248;8.252;2022-08-19T06:51:43;16.73;;;15.02;;
37407;SDS011;24866;50.248;8.252;2022-08-19T06:54:15;17.15;;;15.35;;
37407;SDS011;24866;50.248;8.252;2022-08-19T06:56:47;16.67;;;14.93;;
37407;SDS011;24866;50.248;8.252;2022-08-19T06:59:18;17.50;;;15.05;;
37407;SDS011;24866;50.248;8.252;2022-08-19T07:01:51;16.48;;;14.02;;
37407;SDS011;24866;50.248;8.252;2022-08-19T07:04:23;17.63;;;14.73;;
37407;SDS011;24866;50.248;8.252;2022-08-19T07:06:58;24.30;;;16.42;;
37407;SDS011;24866;50.248;8.252;2022-08-19T07:09:34;20.33;;;15.32;;
37407;SDS011;24866;50.248;8.252;2022-08-19T07:12:08;19.20;;;16.30;;
37407;SDS011;24866;50.248;8.252;2022-08-19T07:14:41;18.92;;;16.27;;
37407;SDS011;24866;50.248;8.252;2022-08-19T07:17:14;27.42;;;15.05;;
37407;SDS011;24866;50.248;8.252;2022-08-19T07:19:44;14.90;;;12.85;;
37407;SDS011;24866;50.248;8.252;2022-08-19T07:22:14;16.58;;;13.25;;
37407;SDS011;24866;50.248;8.252;2022-08-19T07:24:43;15.40;;;11.15;;
37407;SDS011;24866;50.248;8.252;2022-08-19T07:27:15;15.82;;;12.15;;
37407;SDS011;24866;50.248;8.252;2022-08-19T07:29:45;16.30;;;13.30;;
37407;SDS011;24866;50.248;8.252;2022-08-19T07:32:15;21.77;;;15.65;;
37407;SDS011;24866;50.248;8.252;2022-08-19T07:34:45;17.40;;;13.20;;
37407;SDS011;24866;50.248;8.252;2022-08-19T07:37:16;19.88;;;13.85;;
37407;SDS011;24866;50.248;8.252;2022-08-19T07:39:45;14.43;;;11.77;;
37407;SDS011;24866;50.248;8.252;2022-08-19T07:42:17;17.25;;;13.50;;
37407;SDS011;24866;50.248;8.252;2022-08-19T07:47:18;18.55;;;13.20;;
37407;SDS011;24866;50.248;8.252;2022-08-19T07:49:48;18.48;;;13.98;;
37407;SDS011;24866;50.248;8.252;2022-08-19T07:52:19;19.13;;;14.95;;
37407;SDS011;24866;50.248;8.252;2022-08-19T07:54:49;20.80;;;16.10;;
37407;SDS011;24866;50.248;8.252;2022-08-19T07:57:20;20.10;;;16.98;;
37407;SDS011;24866;50.248;8.252;2022-08-19T07:59:50;25.65;;;15.70;;
37407;SDS011;24866;50.248;8.252;2022-08-19T08:02:20;22.08;;;17.00;;
37407;SDS011;24866;50.248;8.252;2022-08-19T08:04:50;21.45;;;18.90;;
37407;SDS011;24866;50.248;8.252;2022-08-19T08:07:38;19.73;;;15.70;;
37407;SDS011;24866;50.248;8.252;2022-08-19T08:10:25;21.13;;;16.17;;
37407;SDS011;24866;50.248;8.252;2022-08-19T08:12:56;19.83;;;14.05;;
37407;SDS011;24866;50.248;8.252;2022-08-19T08:15:27;24.98;;;19.77;;
37407;SDS011;24866;50.248;8.252;2022-08-19T08:17:57;26.98;;;17.55;;
37407;SDS011;24866;50.248;8.252;2022-08-19T08:20:27;18.77;;;16.45;;
37407;SDS011;24866;50.248;8.252;2022-08-19T08:22:57;24.85;;;18.80;;
37407;SDS011;24866;50.248;8.252;2022-08-19T08:25:45;23.65;;;16.67;;
37407;SDS011;24866;50.248;8.252;2022-08-19T08:28:18;21.75;;;19.33;;
37407;SDS011;24866;50.248;8.252;2022-08-19T08:30:48;23.02;;;19.15;;
37407;SDS011;24866;50.248;8.252;2022-08-19T08:33:20;22.10;;;16.80;;
37407;SDS011;24866;50.248;8.252;2022-08-19T08:35:51;25.98;;;21.20;;
37407;SDS011;24866;50.248;8.252;2022-08-19T08:38:21;25.42;;;19.98;;
37407;SDS011;24866;50.248;8.252;2022-08-19T08:40:52;23.02;;;20.42;;
37407;SDS011;24866;50.248;8.252;2022-08-19T08:43:37;25.50;;;21.48;;
37407;SDS011;24866;50.248;8.252;2022-08-19T08:46:12;30.23;;;22.00;;
37407;SDS011;24866;50.248;8.252;2022-08-19T08:48:46;25.70;;;22.27;;
37407;SDS011;24866;50.248;8.252;2022-08-19T08:51:22;37.10;;;25.63;;
37407;SDS011;24866;50.248;8.252;2022-08-19T08:53:56;35.22;;;27.95;;
37407;SDS011;24866;50.248;8.252;2022-08-19T08:56:27;31.65;;;28.00;;
37407;SDS011;24866;50.248;8.252;2022-08-19T08:58:59;37.15;;;27.77;;
37407;SDS011;24866;50.248;8.252;2022-08-19T09:01:34;37.53;;;27.98;;
37407;SDS011;24866;50.248;8.252;2022-08-19T09:04:05;35.28;;;31.42;;
37407;SDS011;24866;50.248;8.252;2022-08-19T09:06:37;39.13;;;29.75;;
37407;SDS011;24866;50.248;8.252;2022-08-19T09:09:13;40.38;;;33.28;;
37407;SDS011;24866;50.248;8.252;2022-08-19T09:11:48;31.65;;;26.05;;
37407;SDS011;24866;50.248;8.252;2022-08-19T09:14:34;35.35;;;28.30;;
37407;SDS011;24866;50.248;8.252;2022-08-19T09:17:09;37.53;;;31.25;;
37407;SDS011;24866;50.248;8.252;2022-08-19T09:19:46;32.67;;;27.60;;
37407;SDS011;24866;50.248;8.252;2022-08-19T09:22:19;34.15;;;30.55;;
37407;SDS011;24866;50.248;8.252;2022-08-19T09:24:50;34.78;;;22.75;;
37407;SDS011;24866;50.248;8.252;2022-08-19T09:27:21;32.28;;;28.38;;
37407;SDS011;24866;50.248;8.252;2022-08-19T09:29:55;31.87;;;25.83;;
37407;SDS011;24866;50.248;8.252;2022-08-19T09:32:25;25.83;;;21.40;;
37407;SDS011;24866;50.248;8.252;2022-08-19T09:34:56;33.33;;;29.13;;
37407;SDS011;24866;50.248;8.252;2022-08-19T09:37:26;31.95;;;28.65;;
37407;SDS011;24866;50.248;8.252;2022-08-19T09:39:56;30.95;;;27.52;;
37407;SDS011;24866;50.248;8.252;2022-08-19T09:42:26;35.33;;;31.73;;
37407;SDS011;24866;50.248;8.252;2022-08-19T09:44:57;36.63;;;32.70;;
37407;SDS011;24866;50.248;8.252;2022-08-19T09:47:27;32.17;;;28.05;;
37407;SDS011;24866;50.248;8.252;2022-08-19T09:49:58;26.15;;;19.17;;
37407;SDS011;24866;50.248;8.252;2022-08-19T09:52:28;29.67;;;25.98;;
37407;SDS011;24866;50.248;8.252;2022-08-19T09:54:58;24.10;;;21.05;;
37407;SDS011;24866;50.248;8.252;2022-08-19T09:57:28;32.83;;;29.45;;
37407;SDS011;24866;50.248;8.252;2022-08-19T09:59:59;28.52;;;24.48;;
37407;SDS011;24866;50.248;8.252;2022-08-19T10:02:30;30.25;;;22.08;;
37407;SDS011;24866;50.248;8.252;2022-08-19T10:05:00;28.15;;;20.48;;
37407;SDS011;24866;50.248;8.252;2022-08-19T10:07:47;26.77;;;23.80;;
37407;SDS011;24866;50.248;8.252;2022-08-19T10:10:18;27.77;;;24.38;;
37407;SDS011;24866;50.248;8.252;2022-08-19T10:12:48;24.77;;;21.88;;
37407;SDS011;24866;50.248;8.252;2022-08-19T10:15:19;23.25;;;20.38;;
37407;SDS011;24866;50.248;8.252;2022-08-19T10:17:49;20.40;;;18.20;;
37407;SDS011;24866;50.248;8.252;2022-08-19T10:20:19;20.80;;;18.30;;
37407;SDS011;24866;50.248;8.252;2022-08-19T10:22:49;16.80;;;13.30;;
37407;SDS011;24866;50.248;8.252;2022-08-19T10:25:19;16.65;;;14.73;;
37407;SDS011;24866;50.248;8.252;2022-08-19T10:27:49;18.58;;;14.95;;
37407;SDS011;24866;50.248;8.252;2022-08-19T10:30:20;20.40;;;16.70;;
37407;SDS011;24866;50.248;8.252;2022-08-19T10:32:50;19.42;;;17.17;;
37407;SDS011;24866;50.248;8.252;2022-08-19T10:35:20;16.63;;;14.93;;
37407;SDS011;24866;50.248;8.252;2022-08-19T10:37:50;18.02;;;14.60;;
37407;SDS011;24866;50.248;8.252;2022-08-19T10:40:20;15.55;;;13.52;;
37407;SDS011;24866;50.248;8.252;2022-08-19T10:42:50;16.42;;;12.68;;
37407;SDS011;24866;50.248;8.252;2022-08-19T10:45:22;16.85;;;14.00;;
37407;SDS011;24866;50.248;8.252;2022-08-19T10:47:54;14.40;;;11.80;;
37407;SDS011;24866;50.248;8.252;2022-08-19T10:50:24;12.68;;;10.73;;
37407;SDS011;24866;50.248;8.252;2022-08-19T10:53:11;14.05;;;11.23;;
37407;SDS011;24866;50.248;8.252;2022-08-19T10:55:41;11.82;;;10.25;;
37407;SDS011;24866;50.248;8.252;2022-08-19T10:58:31;11.57;;;10.20;;
37407;SDS011;24866;50.248;8.252;2022-08-19T11:01:02;11.45;;;10.35;;
37407;SDS011;24866;50.248;8.252;2022-08-19T11:03:33;11.87;;;9.97;;
37407;SDS011;24866;50.248;8.252;2022-08-19T11:06:04;13.52;;;10.52;;
37407;SDS011;24866;50.248;8.252;2022-08-19T11:08:35;9.77;;;7.93;;
37407;SDS011;24866;50.248;8.252;2022-08-19T11:11:06;12.35;;;8.70;;
37407;SDS011;24866;50.248;8.252;2022-08-19T11:13:38;11.88;;;10.75;;
37407;SDS011;24866;50.248;8.252;2022-08-19T11:16:16;12.38;;;9.27;;
37407;SDS011;24866;50.248;8.252;2022-08-19T11:18:48;12.38;;;8.75;;
37407;SDS011;24866;50.248;8.252;2022-08-19T11:21:20;10.85;;;8.23;;
37407;SDS011;24866;50.248;8.252;2022-08-19T11:23:52;8.73;;;7.43;;
37407;SDS011;24866;50.248;8.252;2022-08-19T11:26:25;9.65;;;8.57;;
37407;SDS011;24866;50.248;8.252;2022-08-19T11:28:58;11.77;;;7.90;;
37407;SDS011;24866;50.248;8.252;2022-08-19T11:31:31;9.38;;;7.10;;
37407;SDS011;24866;50.248;8.252;2022-08-19T11:34:06;8.70;;;7.03;;
37407;SDS011;24866;50.248;8.252;2022-08-19T11:36:39;9.10;;;7.20;;
37407;SDS011;24866;50.248;8.252;2022-08-19T11:39:12;11.15;;;7.35;;
37407;SDS011;24866;50.248;8.252;2022-08-19T11:44:14;9.00;;;6.35;;
37407;SDS011;24866;50.248;8.252;2022-08-19T11:46:46;8.15;;;6.43;;
37407;SDS011;24866;50.248;8.252;2022-08-19T11:49:16;8.07;;;6.07;;
37407;SDS011;24866;50.248;8.252;2022-08-19T11:51:49;9.13;;;6.10;;
37407;SDS011;24866;50.248;8.252;2022-08-19T11:54:19;6.18;;;5.35;;
37407;SDS011;24866;50.248;8.252;2022-08-19T11:56:49;6.18;;;5.45;;
37407;SDS011;24866;50.248;8.252;2022-08-19T11:59:18;8.48;;;6.00;;
37407;SDS011;24866;50.248;8.252;2022-08-19T12:01:50;7.30;;;5.45;;
37407;SDS011;24866;50.248;8.252;2022-08-19T12:04:20;10.77;;;6.18;;
37407;SDS011;24866;50.248;8.252;2022-08-19T12:06:50;12.65;;;4.93;;
37407;SDS011;24866;50.248;8.252;2022-08-19T12:09:20;6.95;;;4.53;;
37407;SDS011;24866;50.248;8.252;2022-08-19T12:11:50;6.18;;;4.40;;
37407;SDS011;24866;50.248;8.252;2022-08-19T12:14:20;6.40;;;4.47;;
37407;SDS011;24866;50.248;8.252;2022-08-19T12:16:51;6.30;;;4.47;;
37407;SDS011;24866;50.248;8.252;2022-08-19T12:19:21;8.38;;;4.72;;
37407;SDS011;24866;50.248;8.252;2022-08-19T12:21:52;6.47;;;4.60;;
37407;SDS011;24866;50.248;8.252;2022-08-19T12:24:29;6.07;;;4.40;;
37407;SDS011;24866;50.248;8.252;2022-08-19T12:27:00;7.43;;;4.93;;
37407;SDS011;24866;50.248;8.252;2022-08-19T12:29:30;19.02;;;5.15;;
37407;SDS011;24866;50.248;8.252;2022-08-19T12:32:03;7.43;;;5.57;;
37407;SDS011;24866;50.248;8.252;2022-08-19T12:34:33;9.15;;;5.13;;
37407;SDS011;24866;50.248;8.252;2022-08-19T12:37:05;7.43;;;5.65;;
37407;SDS011;24866;50.248;8.252;2022-08-19T12:39:36;7.15;;;4.85;;
37407;SDS011;24866;50.248;8.252;2022-08-19T12:42:09;7.55;;;4.13;;
37407;SDS011;24866;50.248;8.252;2022-08-19T12:44:41;7.05;;;5.00;;
37407;SDS011;24866;50.248;8.252;2022-08-19T12:47:13;5.65;;;5.00;;
37407;SDS011;24866;50.248;8.252;2022-08-19T12:49:45;6.45;;;5.07;;
37407;SDS011;24866;50.248;8.252;2022-08-19T12:52:15;6.68;;;4.80;;
37407;SDS011;24866;50.248;8.252;2022-08-19T12:54:48;6.10;;;5.00;;
37407;SDS011;24866;50.248;8.252;2022-08-19T12:57:18;6.05;;;4.45;;
37407;SDS011;24866;50.248;8.252;2022-08-19T12:59:51;6.93;;;4.97;;
37407;SDS011;24866;50.248;8.252;2022-08-19T13:02:23;8.38;;;4.50;;
37407;SDS011;24866;50.248;8.252;2022-08-19T13:04:53;10.30;;;4.53;;
37407;SDS011;24866;50.248;8.252;2022-08-19T13:07:24;5.20;;;4.00;;
37407;SDS011;24866;50.248;8.252;2022-08-19T13:09:54;6.47;;;4.60;;
37407;SDS011;24866;50.248;8.252;2022-08-19T13:12:24;9.55;;;4.45;;
37407;SDS011;24866;50.248;8.252;2022-08-19T13:14:55;6.55;;;5.10;;
37407;SDS011;24866;50.248;8.252;2022-08-19T13:17:27;6.35;;;4.90;;
37407;SDS011;24866;50.248;8.252;2022-08-19T13:19:57;6.28;;;5.03;;
37407;SDS011;24866;50.248;8.252;2022-08-19T13:22:27;5.95;;;4.88;;
37407;SDS011;24866;50.248;8.252;2022-08-19T13:24:57;6.85;;;4.05;;
37407;SDS011;24866;50.248;8.252;2022-08-19T13:27:28;7.03;;;5.03;;
37407;SDS011;24866;50.248;8.252;2022-08-19T13:29:59;6.43;;;5.47;;
37407;SDS011;24866;50.248;8.252;2022-08-19T13:32:48;10.85;;;4.95;;
37407;SDS011;24866;50.248;8.252;2022-08-19T13:35:36;6.35;;;5.75;;
37407;SDS011;24866;50.248;8.252;2022-08-19T13:38:06;8.63;;;4.85;;
37407;SDS011;24866;50.248;8.252;2022-08-19T13:40:38;13.13;;;4.22;;
37407;SDS011;24866;50.248;8.252;2022-08-19T13:43:09;7.10;;;4.55;;
37407;SDS011;24866;50.248;8.252;2022-08-19T13:45:39;5.10;;;4.40;;
37407;SDS011;24866;50.248;8.252;2022-08-19T13:48:10;7.40;;;4.72;;
37407;SDS011;24866;50.248;8.252;2022-08-19T13:50:42;6.93;;;4.50;;
37407;SDS011;24866;50.248;8.252;2022-08-19T13:53:15;5.72;;;4.25;;
37407;SDS011;24866;50.248;8.252;2022-08-19T13:55:45;8.30;;;4.57;;
37407;SDS011;24866;50.248;8.252;2022-08-19T13:58:15;7.22;;;4.88;;
37407;SDS011;24866;50.248;8.252;2022-08-19T14:00:45;7.28;;;4.75;;
37407;SDS011;24866;50.248;8.252;2022-08-19T14:03:17;6.40;;;5.15;;
37407;SDS011;24866;50.248;8.252;2022-08-19T14:05:47;7.10;;;4.82;;
37407;SDS011;24866;50.248;8.252;2022-08-19T14:08:17;6.95;;;4.93;;
37407;SDS011;24866;50.248;8.252;2022-08-19T14:10:48;5.30;;;4.53;;
37407;SDS011;24866;50.248;8.252;2022-08-19T14:13:19;5.15;;;4.63;;
37407;SDS011;24866;50.248;8.252;2022-08-19T14:15:50;6.20;;;5.60;;
37407;SDS011;24866;50.248;8.252;2022-08-19T14:18:22;6.88;;;5.38;;
37407;SDS011;24866;50.248;8.252;2022-08-19T14:20:53;5.50;;;4.57;;
37407;SDS011;24866;50.248;8.252;2022-08-19T14:23:24;5.40;;;4.20;;
37407;SDS011;24866;50.248;8.252;2022-08-19T14:25:55;6.22;;;2.72;;
37407;SDS011;24866;50.248;8.252;2022-08-19T14:28:32;3.33;;;2.85;;
37407;SDS011;24866;50.248;8.252;2022-08-19T14:31:03;4.55;;;3.50;;
37407;SDS011;24866;50.248;8.252;2022-08-19T14:33:34;6.32;;;4.43;;
37407;SDS011;24866;50.248;8.252;2022-08-19T14:36:04;6.35;;;4.90;;
37407;SDS011;24866;50.248;8.252;2022-08-19T14:38:35;7.43;;;4.13;;
37407;SDS011;24866;50.248;8.252;2022-08-19T14:41:06;5.22;;;4.10;;
37407;SDS011;24866;50.248;8.252;2022-08-19T14:43:40;6.18;;;4.50;;
37407;SDS011;24866;50.248;8.252;2022-08-19T14:46:10;5.00;;;4.07;;
37407;SDS011;24866;50.248;8.252;2022-08-19T14:48:42;5.85;;;4.88;;
37407;SDS011;24866;50.248;8.252;2022-08-19T14:51:12;6.28;;;5.10;;
37407;SDS011;24866;50.248;8.252;2022-08-19T14:53:42;5.40;;;4.13;;
37407;SDS011;24866;50.248;8.252;2022-08-19T14:56:14;6.18;;;5.00;;
37407;SDS011;24866;50.248;8.252;2022-08-19T14:58:47;7.95;;;4.60;;
37407;SDS011;24866;50.248;8.252;2022-08-19T15:03:52;8.10;;;4.30;;